sensor_id;sensor_type;location;lat;lon;timestamp;pressure;altitude;pressure_sealevel;temperature
64916;BMP280;51427;-27.442;153.014;2023-05-02T00:00:33;101897.59;;;19.21
64916;BMP280;51427;-27.442;153.014;2023-05-02T00:03:02;101906.66;;;19.39
64916;BMP280;51427;-27.442;153.014;2023-05-02T00:05:30;101896.50;;;19.79
64916;BMP280;51427;-27.442;153.014;2023-05-02T00:07:58;101888.09;;;19.10
64916;BMP280;51427;-27.442;153.014;2023-05-02T00:10:25;101889.41;;;18.88
64916;BMP280;51427;-27.442;153.014;2023-05-02T00:12:53;101890.88;;;19.20
64916;BMP280;51427;-27.442;153.014;2023-05-02T00:15:21;101892.44;;;19.36
64916;BMP280;51427;-27.442;153.014;2023-05-02T00:17:48;101879.13;;;20.25
64916;BMP280;51427;-27.442;153.014;2023-05-02T00:20:16;101881.91;;;20.35
64916;BMP280;51427;-27.442;153.014;2023-05-02T00:22:44;101868.44;;;20.71
64916;BMP280;51427;-27.442;153.014;2023-05-02T00:25:11;101865.56;;;20.63
64916;BMP280;51427;-27.442;153.014;2023-05-02T00:27:45;101872.09;;;20.67
64916;BMP280;51427;-27.442;153.014;2023-05-02T00:30:14;101874.75;;;21.03
64916;BMP280;51427;-27.442;153.014;2023-05-02T00:32:42;101863.75;;;21.63
64916;BMP280;51427;-27.442;153.014;2023-05-02T00:35:10;101857.59;;;22.12
64916;BMP280;51427;-27.442;153.014;2023-05-02T00:37:37;101865.81;;;22.15
64916;BMP280;51427;-27.442;153.014;2023-05-02T00:40:06;101876.03;;;22.15
64916;BMP280;51427;-27.442;153.014;2023-05-02T00:42:34;101861.22;;;22.54
64916;BMP280;51427;-27.442;153.014;2023-05-02T00:45:03;101845.75;;;23.01
64916;BMP280;51427;-27.442;153.014;2023-05-02T00:47:32;101828.31;;;22.84
64916;BMP280;51427;-27.442;153.014;2023-05-02T00:50:00;101821.75;;;22.36
64916;BMP280;51427;-27.442;153.014;2023-05-02T00:52:28;101825.84;;;22.05
64916;BMP280;51427;-27.442;153.014;2023-05-02T00:54:55;101818.97;;;22.28
64916;BMP280;51427;-27.442;153.014;2023-05-02T00:57:23;101811.34;;;22.50
64916;BMP280;51427;-27.442;153.014;2023-05-02T00:59:51;101804.81;;;22.35
64916;BMP280;51427;-27.442;153.014;2023-05-02T01:10:51;101793.38;;;21.73
64916;BMP280;51427;-27.442;153.014;2023-05-02T01:13:27;101783.41;;;21.70
64916;BMP280;51427;-27.442;153.014;2023-05-02T01:15:57;101784.59;;;21.77
64916;BMP280;51427;-27.442;153.014;2023-05-02T01:18:29;101779.72;;;22.08
64916;BMP280;51427;-27.442;153.014;2023-05-02T01:21:08;101771.56;;;22.70
64916;BMP280;51427;-27.442;153.014;2023-05-02T01:23:56;101762.59;;;23.29
64916;BMP280;51427;-27.442;153.014;2023-05-02T01:29:04;101761.75;;;23.40
64916;BMP280;51427;-27.442;153.014;2023-05-02T01:31:45;101750.16;;;24.08
64916;BMP280;51427;-27.442;153.014;2023-05-02T01:34:16;101754.31;;;22.95
64916;BMP280;51427;-27.442;153.014;2023-05-02T01:36:47;101759.88;;;23.00
64916;BMP280;51427;-27.442;153.014;2023-05-02T01:39:21;101744.97;;;23.16
64916;BMP280;51427;-27.442;153.014;2023-05-02T01:41:52;101726.56;;;23.01
64916;BMP280;51427;-27.442;153.014;2023-05-02T01:44:22;101719.94;;;22.77
64916;BMP280;51427;-27.442;153.014;2023-05-02T01:46:52;101710.56;;;23.30
64916;BMP280;51427;-27.442;153.014;2023-05-02T01:49:23;101719.31;;;23.79
64916;BMP280;51427;-27.442;153.014;2023-05-02T01:51:51;101704.41;;;24.34
64916;BMP280;51427;-27.442;153.014;2023-05-02T01:54:20;101706.56;;;23.89
64916;BMP280;51427;-27.442;153.014;2023-05-02T01:56:49;101711.38;;;24.03
64916;BMP280;51427;-27.442;153.014;2023-05-02T01:59:19;101694.47;;;24.11
64916;BMP280;51427;-27.442;153.014;2023-05-02T02:01:50;101684.28;;;24.50
64916;BMP280;51427;-27.442;153.014;2023-05-02T02:04:19;101683.75;;;24.26
64916;BMP280;51427;-27.442;153.014;2023-05-02T02:06:51;101683.31;;;24.51
64916;BMP280;51427;-27.442;153.014;2023-05-02T02:09:20;101671.91;;;24.25
64916;BMP280;51427;-27.442;153.014;2023-05-02T02:12:05;101659.50;;;24.21
64916;BMP280;51427;-27.442;153.014;2023-05-02T02:14:38;101660.97;;;24.44
64916;BMP280;51427;-27.442;153.014;2023-05-02T02:17:20;101667.75;;;24.73
64916;BMP280;51427;-27.442;153.014;2023-05-02T02:19:53;101669.50;;;23.74
64916;BMP280;51427;-27.442;153.014;2023-05-02T02:22:23;101668.50;;;24.15
64916;BMP280;51427;-27.442;153.014;2023-05-02T02:24:53;101655.09;;;24.03
64916;BMP280;51427;-27.442;153.014;2023-05-02T02:27:21;101654.25;;;23.63
64916;BMP280;51427;-27.442;153.014;2023-05-02T02:29:49;101652.31;;;23.24
64916;BMP280;51427;-27.442;153.014;2023-05-02T02:32:16;101654.25;;;23.63
64916;BMP280;51427;-27.442;153.014;2023-05-02T02:34:44;101633.91;;;24.12
64916;BMP280;51427;-27.442;153.014;2023-05-02T02:37:18;101648.56;;;23.89
64916;BMP280;51427;-27.442;153.014;2023-05-02T02:48:02;101638.22;;;23.30
64916;BMP280;51427;-27.442;153.014;2023-05-02T02:50:42;101625.19;;;23.64
64916;BMP280;51427;-27.442;153.014;2023-05-02T02:53:20;101626.13;;;23.63
64916;BMP280;51427;-27.442;153.014;2023-05-02T02:56:04;101613.09;;;23.96
64916;BMP280;51427;-27.442;153.014;2023-05-02T02:58:58;101602.25;;;23.83
64916;BMP280;51427;-27.442;153.014;2023-05-02T03:01:29;101589.34;;;24.62
64916;BMP280;51427;-27.442;153.014;2023-05-02T03:03:58;101582.25;;;24.27
64916;BMP280;51427;-27.442;153.014;2023-05-02T03:06:32;101573.56;;;24.48
64916;BMP280;51427;-27.442;153.014;2023-05-02T03:09:00;101574.91;;;24.43
64916;BMP280;51427;-27.442;153.014;2023-05-02T03:11:28;101579.88;;;24.44
64916;BMP280;51427;-27.442;153.014;2023-05-02T03:13:55;101572.63;;;24.87
64916;BMP280;51427;-27.442;153.014;2023-05-02T03:18:58;101563.75;;;24.81
64916;BMP280;51427;-27.442;153.014;2023-05-02T03:21:26;101556.44;;;25.24
64916;BMP280;51427;-27.442;153.014;2023-05-02T03:23:54;101539.06;;;25.18
64916;BMP280;51427;-27.442;153.014;2023-05-02T03:26:22;101544.69;;;25.40
64916;BMP280;51427;-27.442;153.014;2023-05-02T03:28:49;101562.75;;;25.48
64916;BMP280;51427;-27.442;153.014;2023-05-02T03:31:17;101564.44;;;25.66
64916;BMP280;51427;-27.442;153.014;2023-05-02T03:33:44;101583.38;;;25.47
64916;BMP280;51427;-27.442;153.014;2023-05-02T03:36:12;101593.06;;;25.62
64916;BMP280;51427;-27.442;153.014;2023-05-02T03:38:40;101574.66;;;25.85
64916;BMP280;51427;-27.442;153.014;2023-05-02T03:41:07;101564.63;;;25.65
64916;BMP280;51427;-27.442;153.014;2023-05-02T03:43:35;101560.56;;;25.53
64916;BMP280;51427;-27.442;153.014;2023-05-02T03:46:10;101567.94;;;25.75
64916;BMP280;51427;-27.442;153.014;2023-05-02T03:48:38;101552.75;;;25.91
64916;BMP280;51427;-27.442;153.014;2023-05-02T03:51:06;101550.41;;;25.61
64916;BMP280;51427;-27.442;153.014;2023-05-02T03:53:36;101556.91;;;25.55
64916;BMP280;51427;-27.442;153.014;2023-05-02T03:56:04;101565.22;;;25.76
64916;BMP280;51427;-27.442;153.014;2023-05-02T03:58:34;101543.78;;;25.68
64916;BMP280;51427;-27.442;153.014;2023-05-02T04:01:15;101541.13;;;25.05
64916;BMP280;51427;-27.442;153.014;2023-05-02T04:03:43;101559.97;;;25.13
64916;BMP280;51427;-27.442;153.014;2023-05-02T04:06:10;101539.81;;;25.47
64916;BMP280;51427;-27.442;153.014;2023-05-02T04:08:38;101537.25;;;26.09
64916;BMP280;51427;-27.442;153.014;2023-05-02T04:11:06;101537.28;;;25.37
64916;BMP280;51427;-27.442;153.014;2023-05-02T04:13:33;101528.91;;;25.81
64916;BMP280;51427;-27.442;153.014;2023-05-02T04:16:01;101531.66;;;25.70
64916;BMP280;51427;-27.442;153.014;2023-05-02T04:18:32;101530.13;;;26.47
64916;BMP280;51427;-27.442;153.014;2023-05-02T04:21:00;101514.53;;;26.41
64916;BMP280;51427;-27.442;153.014;2023-05-02T04:23:28;101517.22;;;26.13
64916;BMP280;51427;-27.442;153.014;2023-05-02T04:25:55;101526.41;;;25.71
64916;BMP280;51427;-27.442;153.014;2023-05-02T04:28:23;101527.03;;;26.00
64916;BMP280;51427;-27.442;153.014;2023-05-02T04:30:51;101536.03;;;25.41
64916;BMP280;51427;-27.442;153.014;2023-05-02T04:33:18;101552.19;;;25.60
64916;BMP280;51427;-27.442;153.014;2023-05-02T04:35:46;101547.38;;;25.48
64916;BMP280;51427;-27.442;153.014;2023-05-02T04:38:14;101540.44;;;24.84
64916;BMP280;51427;-27.442;153.014;2023-05-02T04:40:41;101541.53;;;25.65
64916;BMP280;51427;-27.442;153.014;2023-05-02T04:43:09;101534.31;;;25.78
64916;BMP280;51427;-27.442;153.014;2023-05-02T04:45:36;101547.44;;;25.75
64916;BMP280;51427;-27.442;153.014;2023-05-02T04:48:04;101541.38;;;24.93
64916;BMP280;51427;-27.442;153.014;2023-05-02T04:50:32;101535.88;;;24.50
64916;BMP280;51427;-27.442;153.014;2023-05-02T04:53:00;101544.59;;;24.76
64916;BMP280;51427;-27.442;153.014;2023-05-02T04:55:37;101540.28;;;24.58
64916;BMP280;51427;-27.442;153.014;2023-05-02T04:58:03;101529.69;;;24.04
64916;BMP280;51427;-27.442;153.014;2023-05-02T05:00:31;101535.75;;;24.12
64916;BMP280;51427;-27.442;153.014;2023-05-02T05:02:59;101521.59;;;23.90
64916;BMP280;51427;-27.442;153.014;2023-05-02T05:05:26;101529.25;;;23.90
64916;BMP280;51427;-27.442;153.014;2023-05-02T05:07:54;101542.91;;;24.18
64916;BMP280;51427;-27.442;153.014;2023-05-02T05:10:21;101542.78;;;24.20
64916;BMP280;51427;-27.442;153.014;2023-05-02T05:12:49;101541.31;;;24.17
64916;BMP280;51427;-27.442;153.014;2023-05-02T05:15:16;101545.31;;;24.11
64916;BMP280;51427;-27.442;153.014;2023-05-02T05:17:46;101541.50;;;23.86
64916;BMP280;51427;-27.442;153.014;2023-05-02T05:20:13;101547.19;;;24.09
64916;BMP280;51427;-27.442;153.014;2023-05-02T05:22:41;101542.47;;;23.65
64916;BMP280;51427;-27.442;153.014;2023-05-02T05:25:09;101540.06;;;23.43
64916;BMP280;51427;-27.442;153.014;2023-05-02T05:27:37;101541.84;;;23.52
64916;BMP280;51427;-27.442;153.014;2023-05-02T05:30:05;101557.84;;;23.54
64916;BMP280;51427;-27.442;153.014;2023-05-02T05:32:35;101562.25;;;23.22
64916;BMP280;51427;-27.442;153.014;2023-05-02T05:35:03;101568.16;;;23.43
64916;BMP280;51427;-27.442;153.014;2023-05-02T05:37:30;101542.00;;;23.30
64916;BMP280;51427;-27.442;153.014;2023-05-02T05:39:58;101543.50;;;23.13
64916;BMP280;51427;-27.442;153.014;2023-05-02T05:42:26;101540.25;;;23.11
64916;BMP280;51427;-27.442;153.014;2023-05-02T05:44:55;101561.44;;;23.22
64916;BMP280;51427;-27.442;153.014;2023-05-02T05:47:22;101563.06;;;23.23
64916;BMP280;51427;-27.442;153.014;2023-05-02T05:49:56;101558.25;;;23.29
64916;BMP280;51427;-27.442;153.014;2023-05-02T05:52:24;101570.03;;;23.01
64916;BMP280;51427;-27.442;153.014;2023-05-02T05:54:54;101574.53;;;22.97
64916;BMP280;51427;-27.442;153.014;2023-05-02T05:57:22;101576.00;;;22.79
64916;BMP280;51427;-27.442;153.014;2023-05-02T05:59:51;101573.97;;;22.63
64916;BMP280;51427;-27.442;153.014;2023-05-02T06:02:19;101588.47;;;22.62
64916;BMP280;51427;-27.442;153.014;2023-05-02T06:04:46;101596.84;;;22.42
64916;BMP280;51427;-27.442;153.014;2023-05-02T06:07:14;101576.25;;;22.34
64916;BMP280;51427;-27.442;153.014;2023-05-02T06:09:42;101563.69;;;22.42
64916;BMP280;51427;-27.442;153.014;2023-05-02T06:12:09;101561.41;;;22.28
64916;BMP280;51427;-27.442;153.014;2023-05-02T06:14:37;101586.00;;;22.29
64916;BMP280;51427;-27.442;153.014;2023-05-02T06:17:04;101587.25;;;22.35
64916;BMP280;51427;-27.442;153.014;2023-05-02T06:19:32;101589.22;;;22.10
64916;BMP280;51427;-27.442;153.014;2023-05-02T06:21:59;101571.38;;;21.99
64916;BMP280;51427;-27.442;153.014;2023-05-02T06:24:27;101571.38;;;21.99
64916;BMP280;51427;-27.442;153.014;2023-05-02T06:26:55;101579.34;;;22.16
64916;BMP280;51427;-27.442;153.014;2023-05-02T06:29:23;101597.09;;;22.18
64916;BMP280;51427;-27.442;153.014;2023-05-02T06:31:54;101619.56;;;22.13
64916;BMP280;51427;-27.442;153.014;2023-05-02T06:34:22;101612.97;;;21.99
64916;BMP280;51427;-27.442;153.014;2023-05-02T06:36:54;101620.47;;;21.79
64916;BMP280;51427;-27.442;153.014;2023-05-02T06:39:24;101619.09;;;21.75
64916;BMP280;51427;-27.442;153.014;2023-05-02T06:41:56;101628.59;;;21.84
64916;BMP280;51427;-27.442;153.014;2023-05-02T06:44:24;101626.97;;;21.72
64916;BMP280;51427;-27.442;153.014;2023-05-02T06:46:52;101619.09;;;21.75
64916;BMP280;51427;-27.442;153.014;2023-05-02T06:49:21;101613.88;;;21.66
64916;BMP280;51427;-27.442;153.014;2023-05-02T06:51:49;101610.94;;;21.48
64916;BMP280;51427;-27.442;153.014;2023-05-02T06:54:17;101610.53;;;21.42
64916;BMP280;51427;-27.442;153.014;2023-05-02T06:56:44;101623.78;;;21.47
64916;BMP280;51427;-27.442;153.014;2023-05-02T06:59:12;101639.38;;;21.42
64916;BMP280;51427;-27.442;153.014;2023-05-02T07:01:43;101646.63;;;21.36
64916;BMP280;51427;-27.442;153.014;2023-05-02T07:04:11;101639.19;;;21.22
64916;BMP280;51427;-27.442;153.014;2023-05-02T07:06:39;101620.28;;;21.14
64916;BMP280;51427;-27.442;153.014;2023-05-02T07:09:07;101626.19;;;21.14
64916;BMP280;51427;-27.442;153.014;2023-05-02T07:11:34;101628.69;;;21.03
64916;BMP280;51427;-27.442;153.014;2023-05-02T07:14:02;101628.09;;;21.00
64916;BMP280;51427;-27.442;153.014;2023-05-02T07:16:30;101631.06;;;20.94
64916;BMP280;51427;-27.442;153.014;2023-05-02T07:18:57;101647.84;;;20.96
64916;BMP280;51427;-27.442;153.014;2023-05-02T07:21:25;101642.34;;;20.79
64916;BMP280;51427;-27.442;153.014;2023-05-02T07:23:54;101635.03;;;20.75
64916;BMP280;51427;-27.442;153.014;2023-05-02T07:26:23;101637.47;;;20.64
64916;BMP280;51427;-27.442;153.014;2023-05-02T07:28:53;101657.00;;;20.63
64916;BMP280;51427;-27.442;153.014;2023-05-02T07:31:20;101650.00;;;20.54
64916;BMP280;51427;-27.442;153.014;2023-05-02T07:33:48;101647.50;;;20.30
64916;BMP280;51427;-27.442;153.014;2023-05-02T07:36:16;101641.41;;;20.32
64916;BMP280;51427;-27.442;153.014;2023-05-02T07:38:43;101636.44;;;20.31
64916;BMP280;51427;-27.442;153.014;2023-05-02T07:41:13;101642.72;;;20.38
64916;BMP280;51427;-27.442;153.014;2023-05-02T07:43:40;101659.00;;;20.35
64916;BMP280;51427;-27.442;153.014;2023-05-02T07:46:08;101669.56;;;20.42
64916;BMP280;51427;-27.442;153.014;2023-05-02T07:48:35;101668.75;;;20.41
64916;BMP280;51427;-27.442;153.014;2023-05-02T07:51:07;101660.91;;;20.44
64916;BMP280;51427;-27.442;153.014;2023-05-02T07:53:35;101661.84;;;20.43
64916;BMP280;51427;-27.442;153.014;2023-05-02T07:56:03;101671.91;;;20.44
64916;BMP280;51427;-27.442;153.014;2023-05-02T07:58:36;101691.88;;;20.26
64916;BMP280;51427;-27.442;153.014;2023-05-02T08:01:03;101687.16;;;20.44
64916;BMP280;51427;-27.442;153.014;2023-05-02T08:03:31;101692.13;;;20.58
64916;BMP280;51427;-27.442;153.014;2023-05-02T08:05:58;101702.91;;;20.49
64916;BMP280;51427;-27.442;153.014;2023-05-02T08:08:27;101701.38;;;20.59
64916;BMP280;51427;-27.442;153.014;2023-05-02T08:10:55;101676.47;;;20.40
64916;BMP280;51427;-27.442;153.014;2023-05-02T08:13:23;101676.38;;;20.29
64916;BMP280;51427;-27.442;153.014;2023-05-02T08:15:50;101689.00;;;20.18
64916;BMP280;51427;-27.442;153.014;2023-05-02T08:18:24;101706.28;;;20.25
64916;BMP280;51427;-27.442;153.014;2023-05-02T08:20:54;101691.97;;;20.24
64916;BMP280;51427;-27.442;153.014;2023-05-02T08:23:24;101685.66;;;20.30
64916;BMP280;51427;-27.442;153.014;2023-05-02T08:25:52;101703.03;;;20.36
64916;BMP280;51427;-27.442;153.014;2023-05-02T08:28:20;101710.16;;;20.31
64916;BMP280;51427;-27.442;153.014;2023-05-02T08:30:48;101720.03;;;20.23
64916;BMP280;51427;-27.442;153.014;2023-05-02T08:33:16;101722.56;;;20.23
64916;BMP280;51427;-27.442;153.014;2023-05-02T08:35:43;101708.22;;;20.22
64916;BMP280;51427;-27.442;153.014;2023-05-02T08:38:11;101722.56;;;20.23
64916;BMP280;51427;-27.442;153.014;2023-05-02T08:40:38;101756.50;;;20.22
64916;BMP280;51427;-27.442;153.014;2023-05-02T08:43:06;101758.84;;;20.12
64916;BMP280;51427;-27.442;153.014;2023-05-02T08:45:41;101747.66;;;20.02
64916;BMP280;51427;-27.442;153.014;2023-05-02T08:48:12;101749.47;;;20.13
64916;BMP280;51427;-27.442;153.014;2023-05-02T08:50:45;101749.47;;;20.13
64916;BMP280;51427;-27.442;153.014;2023-05-02T08:53:14;101740.75;;;20.04
64916;BMP280;51427;-27.442;153.014;2023-05-02T08:55:42;101743.00;;;20.09
64916;BMP280;51427;-27.442;153.014;2023-05-02T08:58:10;101738.50;;;20.00
64916;BMP280;51427;-27.442;153.014;2023-05-02T09:00:41;101754.75;;;19.98
64916;BMP280;51427;-27.442;153.014;2023-05-02T09:03:19;101750.78;;;19.94
64916;BMP280;51427;-27.442;153.014;2023-05-02T09:08:29;101756.78;;;20.05
64916;BMP280;51427;-27.442;153.014;2023-05-02T09:10:57;101760.47;;;20.01
64916;BMP280;51427;-27.442;153.014;2023-05-02T09:13:43;101767.53;;;19.96
64916;BMP280;51427;-27.442;153.014;2023-05-02T09:16:13;101746.03;;;20.01
64916;BMP280;51427;-27.442;153.014;2023-05-02T09:18:48;101749.38;;;20.02
64916;BMP280;51427;-27.442;153.014;2023-05-02T09:21:23;101757.47;;;19.95
64916;BMP280;51427;-27.442;153.014;2023-05-02T09:23:54;101761.75;;;19.94
64916;BMP280;51427;-27.442;153.014;2023-05-02T09:26:32;101768.28;;;19.98
64916;BMP280;51427;-27.442;153.014;2023-05-02T09:29:03;101774.84;;;19.88
64916;BMP280;51427;-27.442;153.014;2023-05-02T09:31:35;101775.22;;;19.82
64916;BMP280;51427;-27.442;153.014;2023-05-02T09:34:15;101776.34;;;19.78
64916;BMP280;51427;-27.442;153.014;2023-05-02T09:36:50;101764.34;;;19.80
64916;BMP280;51427;-27.442;153.014;2023-05-02T09:39:22;101763.31;;;19.70
64916;BMP280;51427;-27.442;153.014;2023-05-02T09:41:50;101777.63;;;19.71
64916;BMP280;51427;-27.442;153.014;2023-05-02T09:44:23;101778.88;;;19.78
64916;BMP280;51427;-27.442;153.014;2023-05-02T09:46:55;101769.91;;;19.73
64916;BMP280;51427;-27.442;153.014;2023-05-02T09:49:46;101783.94;;;19.78
64916;BMP280;51427;-27.442;153.014;2023-05-02T09:52:17;101795.53;;;19.82
64916;BMP280;51427;-27.442;153.014;2023-05-02T09:54:47;101789.03;;;19.78
64916;BMP280;51427;-27.442;153.014;2023-05-02T09:57:18;101797.53;;;19.77
64916;BMP280;51427;-27.442;153.014;2023-05-02T09:59:56;101804.47;;;19.75
64916;BMP280;51427;-27.442;153.014;2023-05-02T10:02:25;101813.16;;;19.71
64916;BMP280;51427;-27.442;153.014;2023-05-02T10:04:56;101825.25;;;19.68
64916;BMP280;51427;-27.442;153.014;2023-05-02T10:07:25;101828.88;;;19.78
64916;BMP280;51427;-27.442;153.014;2023-05-02T10:09:54;101833.94;;;19.78
64916;BMP280;51427;-27.442;153.014;2023-05-02T10:12:26;101821.16;;;19.79
64916;BMP280;51427;-27.442;153.014;2023-05-02T10:15:01;101815.84;;;19.82
64916;BMP280;51427;-27.442;153.014;2023-05-02T10:17:39;101822.06;;;19.78
64916;BMP280;51427;-27.442;153.014;2023-05-02T10:20:17;101817.50;;;19.83
64916;BMP280;51427;-27.442;153.014;2023-05-02T10:22:49;101823.69;;;19.79
64916;BMP280;51427;-27.442;153.014;2023-05-02T10:25:17;101833.28;;;19.74
64916;BMP280;51427;-27.442;153.014;2023-05-02T10:27:45;101839.84;;;19.78
64916;BMP280;51427;-27.442;153.014;2023-05-02T10:30:14;101831.97;;;19.69
64916;BMP280;51427;-27.442;153.014;2023-05-02T10:32:45;101836.63;;;19.62
64916;BMP280;51427;-27.442;153.014;2023-05-02T10:35:15;101840.69;;;19.65
64916;BMP280;51427;-27.442;153.014;2023-05-02T10:37:45;101832.06;;;19.67
64916;BMP280;51427;-27.442;153.014;2023-05-02T10:40:15;101844.06;;;19.65
64916;BMP280;51427;-27.442;153.014;2023-05-02T10:42:47;101838.03;;;19.66
64916;BMP280;51427;-27.442;153.014;2023-05-02T10:45:43;101849.31;;;19.62
64916;BMP280;51427;-27.442;153.014;2023-05-02T10:50:52;101845.03;;;19.63
64916;BMP280;51427;-27.442;153.014;2023-05-02T10:53:35;101842.06;;;19.56
64916;BMP280;51427;-27.442;153.014;2023-05-02T10:58:37;101851.78;;;19.64
64916;BMP280;51427;-27.442;153.014;2023-05-02T11:04:09;101856.78;;;19.52
64916;BMP280;51427;-27.442;153.014;2023-05-02T11:11:56;101856.19;;;19.60
64916;BMP280;51427;-27.442;153.014;2023-05-02T11:19:26;101864.47;;;19.64
64916;BMP280;51427;-27.442;153.014;2023-05-02T11:24:50;101862.97;;;19.74
64916;BMP280;51427;-27.442;153.014;2023-05-02T11:30:10;101845.72;;;19.79
64916;BMP280;51427;-27.442;153.014;2023-05-02T11:35:27;101852.63;;;19.77
64916;BMP280;51427;-27.442;153.014;2023-05-02T11:38:05;101843.28;;;19.77
64916;BMP280;51427;-27.442;153.014;2023-05-02T11:40:33;101846.56;;;19.79
64916;BMP280;51427;-27.442;153.014;2023-05-02T11:43:03;101848.09;;;19.68
64916;BMP280;51427;-27.442;153.014;2023-05-02T11:45:39;101857.81;;;19.75
64916;BMP280;51427;-27.442;153.014;2023-05-02T11:48:09;101873.41;;;19.69
64916;BMP280;51427;-27.442;153.014;2023-05-02T11:50:54;101873.22;;;19.72
64916;BMP280;51427;-27.442;153.014;2023-05-02T11:53:27;101879.94;;;19.73
64916;BMP280;51427;-27.442;153.014;2023-05-02T11:55:58;101885.22;;;19.70
64916;BMP280;51427;-27.442;153.014;2023-05-02T11:58:30;101887.56;;;19.73
64916;BMP280;51427;-27.442;153.014;2023-05-02T12:01:13;101884.50;;;19.68
64916;BMP280;51427;-27.442;153.014;2023-05-02T12:03:41;101870.34;;;19.64
64916;BMP280;51427;-27.442;153.014;2023-05-02T12:08:37;101872.09;;;19.50
64916;BMP280;51427;-27.442;153.014;2023-05-02T12:11:06;101873.72;;;19.51
64916;BMP280;51427;-27.442;153.014;2023-05-02T12:13:34;101874.38;;;19.54
64916;BMP280;51427;-27.442;153.014;2023-05-02T12:16:10;101869.13;;;19.44
64916;BMP280;51427;-27.442;153.014;2023-05-02T12:18:38;101864.78;;;19.32
64916;BMP280;51427;-27.442;153.014;2023-05-02T12:21:07;101858.63;;;19.36
64916;BMP280;51427;-27.442;153.014;2023-05-02T12:23:35;101852.22;;;19.56
64916;BMP280;51427;-27.442;153.014;2023-05-02T12:26:16;101837.22;;;19.40
64916;BMP280;51427;-27.442;153.014;2023-05-02T12:28:54;101835.81;;;19.22
64916;BMP280;51427;-27.442;153.014;2023-05-02T12:31:22;101831.91;;;19.16
64916;BMP280;51427;-27.442;153.014;2023-05-02T12:33:50;101842.31;;;19.12
64916;BMP280;51427;-27.442;153.014;2023-05-02T12:36:21;101852.28;;;19.15
64916;BMP280;51427;-27.442;153.014;2023-05-02T12:38:56;101846.91;;;18.92
64916;BMP280;51427;-27.442;153.014;2023-05-02T12:41:37;101839.22;;;18.79
64916;BMP280;51427;-27.442;153.014;2023-05-02T12:44:09;101837.41;;;18.67
64916;BMP280;51427;-27.442;153.014;2023-05-02T12:46:37;101834.31;;;18.62
64916;BMP280;51427;-27.442;153.014;2023-05-02T12:49:06;101824.00;;;18.79
64916;BMP280;51427;-27.442;153.014;2023-05-02T12:51:39;101819.09;;;18.76
64916;BMP280;51427;-27.442;153.014;2023-05-02T12:54:07;101823.91;;;18.67
64916;BMP280;51427;-27.442;153.014;2023-05-02T12:56:41;101826.91;;;18.60
64916;BMP280;51427;-27.442;153.014;2023-05-02T12:59:30;101832.88;;;18.59
64916;BMP280;51427;-27.442;153.014;2023-05-02T13:01:58;101823.78;;;18.55
64916;BMP280;51427;-27.442;153.014;2023-05-02T13:04:36;101832.06;;;18.58
64916;BMP280;51427;-27.442;153.014;2023-05-02T13:07:05;101837.75;;;18.61
64916;BMP280;51427;-27.442;153.014;2023-05-02T13:09:33;101847.91;;;18.61
64916;BMP280;51427;-27.442;153.014;2023-05-02T13:12:01;101862.31;;;18.75
64916;BMP280;51427;-27.442;153.014;2023-05-02T13:14:32;101862.59;;;18.84
64916;BMP280;51427;-27.442;153.014;2023-05-02T13:17:00;101843.03;;;18.86
64916;BMP280;51427;-27.442;153.014;2023-05-02T13:19:27;101845.41;;;18.89
64916;BMP280;51427;-27.442;153.014;2023-05-02T13:21:56;101855.72;;;18.86
64916;BMP280;51427;-27.442;153.014;2023-05-02T13:24:24;101861.50;;;18.88
64916;BMP280;51427;-27.442;153.014;2023-05-02T13:26:52;101869.28;;;18.85
64916;BMP280;51427;-27.442;153.014;2023-05-02T13:29:19;101852.44;;;18.84
64916;BMP280;51427;-27.442;153.014;2023-05-02T13:31:47;101837.97;;;18.86
64916;BMP280;51427;-27.442;153.014;2023-05-02T13:34:15;101832.53;;;18.78
64916;BMP280;51427;-27.442;153.014;2023-05-02T13:36:42;101836.13;;;18.74
64916;BMP280;51427;-27.442;153.014;2023-05-02T13:39:11;101840.84;;;18.66
64916;BMP280;51427;-27.442;153.014;2023-05-02T13:41:40;101835.22;;;18.61
64916;BMP280;51427;-27.442;153.014;2023-05-02T13:44:08;101832.16;;;18.57
64916;BMP280;51427;-27.442;153.014;2023-05-02T13:46:35;101834.19;;;18.50
64916;BMP280;51427;-27.442;153.014;2023-05-02T13:49:04;101853.63;;;18.36
64916;BMP280;51427;-27.442;153.014;2023-05-02T13:51:34;101853.03;;;18.17
64916;BMP280;51427;-27.442;153.014;2023-05-02T13:54:02;101841.28;;;18.16
64916;BMP280;51427;-27.442;153.014;2023-05-02T13:56:29;101849.44;;;18.21
64916;BMP280;51427;-27.442;153.014;2023-05-02T13:58:57;101844.28;;;18.07
64916;BMP280;51427;-27.442;153.014;2023-05-02T14:01:25;101847.72;;;18.06
64916;BMP280;51427;-27.442;153.014;2023-05-02T14:03:54;101839.56;;;18.01
64916;BMP280;51427;-27.442;153.014;2023-05-02T14:06:21;101840.38;;;18.02
64916;BMP280;51427;-27.442;153.014;2023-05-02T14:08:49;101835.06;;;17.91
64916;BMP280;51427;-27.442;153.014;2023-05-02T14:11:17;101835.28;;;17.72
64916;BMP280;51427;-27.442;153.014;2023-05-02T14:13:44;101827.84;;;17.69
64916;BMP280;51427;-27.442;153.014;2023-05-02T14:16:12;101832.94;;;17.54
64916;BMP280;51427;-27.442;153.014;2023-05-02T14:18:40;101838.72;;;17.71
64916;BMP280;51427;-27.442;153.014;2023-05-02T14:21:07;101850.81;;;17.67
64916;BMP280;51427;-27.442;153.014;2023-05-02T14:23:35;101855.38;;;17.60
64916;BMP280;51427;-27.442;153.014;2023-05-02T14:26:03;101855.03;;;17.81
64916;BMP280;51427;-27.442;153.014;2023-05-02T14:28:33;101857.00;;;17.76
64916;BMP280;51427;-27.442;153.014;2023-05-02T14:31:01;101847.75;;;17.75